createdAt,value
2023-05-15T00:01:13.644Z,96233.44
2023-05-15T00:03:45.503Z,96236.91
2023-05-15T00:06:20.193Z,96235.38
2023-05-15T00:08:51.904Z,96233.53
2023-05-15T00:11:23.647Z,96240.38
2023-05-15T00:13:55.458Z,96236.47
2023-05-15T00:16:27.083Z,96236.16
2023-05-15T00:18:58.830Z,96236.69
2023-05-15T00:21:31.080Z,96236.47
2023-05-15T00:24:02.772Z,96229.31
2023-05-15T00:26:34.566Z,96231.25
2023-05-15T00:29:06.126Z,96227.78
2023-05-15T00:31:37.791Z,96228.97
2023-05-15T00:34:09.438Z,96235.16
2023-05-15T00:36:41.093Z,96233.97
2023-05-15T00:39:12.839Z,96228.13
2023-05-15T00:41:46.429Z,96229.75
2023-05-15T00:44:20.332Z,96231.03
2023-05-15T00:46:53.185Z,96232.34
2023-05-15T00:49:27.689Z,96231.03
2023-05-15T00:52:02.071Z,96234.28
2023-05-15T00:54:33.852Z,96233.63
2023-05-15T00:57:06.536Z,96228.38
2023-05-15T00:59:40.329Z,96232.53
2023-05-15T01:02:15.958Z,96232.06
2023-05-15T01:04:47.646Z,96238.53
2023-05-15T01:07:19.266Z,96244.63
2023-05-15T01:09:52.802Z,96234.84
2023-05-15T01:12:27.030Z,96244.69
2023-05-15T01:14:58.856Z,96243.94
2023-05-15T01:17:31.302Z,96242.66
2023-05-15T01:20:09.421Z,96229.25
2023-05-15T01:23:12.396Z,96232.22
2023-05-15T01:26:13.317Z,96227.41
2023-05-15T01:28:57.407Z,96228.16
2023-05-15T01:31:32.805Z,96225.41
2023-05-15T01:34:09.426Z,96229.25
2023-05-15T01:36:51.461Z,96230.72
2023-05-15T01:39:27.821Z,96221.84
2023-05-15T01:42:08.030Z,96224.13
2023-05-15T01:44:56.789Z,96225.13
2023-05-15T01:47:44.027Z,96217.25
2023-05-15T01:50:20.163Z,96226.13
2023-05-15T01:52:56.609Z,96214.28
2023-05-15T01:55:30.488Z,96215.59
2023-05-15T01:58:04.343Z,96215.81
2023-05-15T02:00:36.653Z,96215.50
2023-05-15T02:03:08.793Z,96219.34
2023-05-15T02:05:41.886Z,96218.88
2023-05-15T02:08:14.005Z,96217.63
2023-05-15T02:10:46.439Z,96215.66
2023-05-15T02:13:18.527Z,96211.97
2023-05-15T02:15:50.142Z,96206.75
2023-05-15T02:18:22.213Z,96213.50
2023-05-15T02:20:56.896Z,96211.00
2023-05-15T02:23:28.921Z,96213.28
2023-05-15T02:26:21.619Z,96213.28
2023-05-15T02:28:59.229Z,96209.56
2023-05-15T02:31:45.432Z,96209.34
2023-05-15T02:34:39.448Z,96206.06
2023-05-15T02:37:18.276Z,96205.22
2023-05-15T02:39:54.429Z,96200.47
2023-05-15T02:42:31.220Z,96202.09
2023-05-15T02:45:08.130Z,96202.31
2023-05-15T02:47:41.005Z,96202.00
2023-05-15T02:50:12.748Z,96195.94
2023-05-15T02:52:44.446Z,96192.81
2023-05-15T02:55:16.238Z,96192.44
2023-05-15T02:57:50.002Z,96197.00
2023-05-15T03:00:22.482Z,96189.84
2023-05-15T03:02:54.106Z,96196.16
2023-05-15T03:05:27.027Z,96194.13
2023-05-15T03:08:00.598Z,96190.84
2023-05-15T03:10:32.179Z,96194.13
2023-05-15T03:13:03.828Z,96195.50
2023-05-15T03:15:35.422Z,96191.38
2023-05-15T03:18:07.044Z,96198.06
2023-05-15T03:20:38.678Z,96187.41
2023-05-15T03:23:10.308Z,96181.09
2023-05-15T03:25:41.857Z,96188.56
2023-05-15T03:28:13.527Z,96193.75
2023-05-15T03:30:45.514Z,96195.47
2023-05-15T03:33:17.125Z,96196.03
2023-05-15T03:35:48.816Z,96190.94
2023-05-15T03:38:20.452Z,96189.19
2023-05-15T03:40:52.234Z,96194.84
2023-05-15T03:43:24.164Z,96199.38
2023-05-15T03:45:55.892Z,96209.78
2023-05-15T03:48:27.552Z,96212.94
2023-05-15T03:50:59.317Z,96211.84
2023-05-15T03:53:30.950Z,96209.31
2023-05-15T03:56:03.556Z,96215.38
2023-05-15T03:58:35.090Z,96214.50
2023-05-15T04:01:08.112Z,96204.53
2023-05-15T04:03:39.762Z,96204.03
2023-05-15T04:06:14.430Z,96195.78
2023-05-15T04:08:46.021Z,96192.41
2023-05-15T04:11:19.983Z,96206.72
2023-05-15T04:13:51.571Z,96206.91
2023-05-15T04:16:23.281Z,96209.06
2023-05-15T04:18:54.888Z,96211.25
2023-05-15T04:21:26.436Z,96211.47
2023-05-15T04:23:58.102Z,96217.47
2023-05-15T04:26:29.861Z,96218.31
2023-05-15T04:29:04.480Z,96220.19
2023-05-15T04:31:36.643Z,96216.38
2023-05-15T04:34:08.211Z,96214.59
2023-05-15T04:36:40.841Z,96211.28
2023-05-15T04:39:14.438Z,96221.34
2023-05-15T04:41:46.582Z,96215.16
2023-05-15T04:44:18.168Z,96217.50
2023-05-15T04:46:52.416Z,96217.78
2023-05-15T04:49:24.096Z,96225.75
2023-05-15T04:51:55.672Z,96226.88
2023-05-15T04:54:29.803Z,96231.97
2023-05-15T04:57:01.625Z,96229.91
2023-05-15T04:59:33.480Z,96232.06
2023-05-15T05:02:05.264Z,96231.81
2023-05-15T05:04:36.885Z,96244.03
2023-05-15T05:07:08.448Z,96242.06
2023-05-15T05:09:40.601Z,96242.25
2023-05-15T05:12:15.296Z,96246.19
2023-05-15T05:14:49.801Z,96241.34
2023-05-15T05:17:21.370Z,96251.69
2023-05-15T05:19:52.953Z,96251.84
2023-05-15T05:22:24.604Z,96252.66
2023-05-15T05:24:56.292Z,96254.59
2023-05-15T05:27:27.941Z,96247.22
2023-05-15T05:30:00.500Z,96249.16
2023-05-15T05:32:32.095Z,96253.78
2023-05-15T05:35:04.236Z,96244.38
2023-05-15T05:37:36.647Z,96248.50
2023-05-15T05:40:10.774Z,96254.44
2023-05-15T05:42:42.477Z,96248.28
2023-05-15T05:45:17.044Z,96259.03
2023-05-15T05:47:48.692Z,96263.13
2023-05-15T05:50:20.467Z,96256.59
2023-05-15T05:52:52.062Z,96250.66
2023-05-15T05:55:23.865Z,96261.28
2023-05-15T05:57:55.784Z,96258.56
2023-05-15T06:00:27.604Z,96256.56
2023-05-15T06:03:00.101Z,96257.06
2023-05-15T06:05:31.997Z,96258.00
2023-05-15T06:08:04.395Z,96257.50
2023-05-15T06:10:38.421Z,96254.47
2023-05-15T06:13:10.054Z,96255.97
2023-05-15T06:15:42.494Z,96259.50
2023-05-15T06:18:14.618Z,96273.19
2023-05-15T06:20:49.412Z,96263.88
2023-05-15T06:23:23.655Z,96271.56
2023-05-15T06:25:56.018Z,96266.91
2023-05-15T06:28:28.140Z,96263.81
2023-05-15T06:30:59.851Z,96267.91
2023-05-15T06:33:31.580Z,96269.44
2023-05-15T06:36:03.267Z,96268.94
2023-05-15T06:38:35.040Z,96270.06
2023-05-15T06:41:06.655Z,96275.94
2023-05-15T06:43:38.548Z,96284.31
2023-05-15T06:46:10.313Z,96283.22
2023-05-15T06:48:41.897Z,96280.41
2023-05-15T06:51:13.840Z,96277.94
2023-05-15T06:53:45.447Z,96275.16
2023-05-15T06:56:16.994Z,96280.06
2023-05-15T06:58:48.576Z,96269.53
2023-05-15T07:01:20.193Z,96278.88
2023-05-15T07:03:54.592Z,96271.44
2023-05-15T07:06:26.567Z,96272.31
2023-05-15T07:09:01.619Z,96276.97
2023-05-15T07:11:37.385Z,96277.19
2023-05-15T07:14:09.004Z,96284.16
2023-05-15T07:16:40.974Z,96278.59
2023-05-15T07:19:12.806Z,96285.91
2023-05-15T07:21:44.453Z,96279.84
2023-05-15T07:24:16.055Z,96274.22
2023-05-15T07:26:58.167Z,96277.16
2023-05-15T07:29:30.999Z,96283.97
2023-05-15T07:32:02.748Z,96290.94
2023-05-15T07:34:34.472Z,96298.34
2023-05-15T07:37:06.076Z,96293.19
2023-05-15T07:39:38.946Z,96296.25
2023-05-15T07:42:10.862Z,96290.84
2023-05-15T07:44:44.610Z,96292.88
2023-05-15T07:47:17.735Z,96292.63
2023-05-15T07:49:49.357Z,96295.31
2023-05-15T07:52:20.968Z,96287.25
2023-05-15T07:54:52.591Z,96293.19
2023-05-15T07:57:25.558Z,96300.38
2023-05-15T07:59:57.302Z,96297.97
2023-05-15T08:02:28.945Z,96287.19
2023-05-15T08:05:00.690Z,96288.56
2023-05-15T08:07:33.787Z,96285.59
2023-05-15T08:10:07.066Z,96292.44
2023-05-15T08:12:38.637Z,96293.38
2023-05-15T08:15:10.713Z,96290.16
2023-05-15T08:17:42.653Z,96296.56
2023-05-15T08:20:14.477Z,96288.00
2023-05-15T08:22:46.074Z,96288.84
2023-05-15T08:25:17.790Z,96287.94
2023-05-15T08:27:49.369Z,96294.47
2023-05-15T08:30:21.437Z,96292.78
2023-05-15T08:32:53.146Z,96301.75
2023-05-15T08:35:25.087Z,96283.84
2023-05-15T08:37:58.564Z,96292.94
2023-05-15T08:40:39.021Z,96293.19
2023-05-15T08:43:18.003Z,96293.06
2023-05-15T08:45:50.151Z,96287.97
2023-05-15T08:48:26.022Z,96287.31
2023-05-15T08:50:59.676Z,96290.56
2023-05-15T08:53:31.813Z,96290.59
2023-05-15T08:56:06.489Z,96282.78
2023-05-15T08:58:38.449Z,96285.53
2023-05-15T09:01:13.206Z,96288.56
2023-05-15T09:03:45.285Z,96286.59
2023-05-15T09:06:18.306Z,96289.06
2023-05-15T09:08:50.805Z,96281.91
2023-05-15T09:11:25.444Z,96283.56
2023-05-15T09:14:00.966Z,96287.00
2023-05-15T09:16:32.596Z,96292.53
2023-05-15T09:19:13.653Z,96284.31
2023-05-15T09:21:45.243Z,96282.06
2023-05-15T09:24:25.344Z,96284.38
2023-05-15T09:27:08.849Z,96283.78
2023-05-15T09:29:40.729Z,96278.50
2023-05-15T09:32:15.324Z,96279.38
2023-05-15T09:34:47.063Z,96284.94
2023-05-15T09:37:31.431Z,96286.19
2023-05-15T09:40:11.783Z,96282.06
2023-05-15T09:42:52.103Z,96274.44
2023-05-15T09:45:26.876Z,96274.16
2023-05-15T09:48:07.013Z,96275.63
2023-05-15T09:50:41.083Z,96269.94
2023-05-15T09:53:14.020Z,96269.69
2023-05-15T09:55:47.747Z,96270.75
2023-05-15T09:58:19.817Z,96264.63
2023-05-15T10:00:51.457Z,96265.84
2023-05-15T10:03:23.524Z,96264.06
2023-05-15T10:06:04.868Z,96269.25
2023-05-15T10:08:37.295Z,96269.25
2023-05-15T10:11:09.100Z,96263.44
2023-05-15T10:13:40.910Z,96271.00
2023-05-15T10:16:14.667Z,96263.00
2023-05-15T10:18:47.395Z,96264.69
2023-05-15T10:21:20.801Z,96262.41
2023-05-15T10:24:02.057Z,96256.53
2023-05-15T10:26:42.899Z,96253.78
2023-05-15T10:29:18.416Z,96249.16
2023-05-15T10:31:52.100Z,96255.28
2023-05-15T10:34:25.175Z,96252.72
2023-05-15T10:36:57.346Z,96252.44
2023-05-15T10:39:29.716Z,96249.72
2023-05-15T10:42:02.326Z,96263.78
2023-05-15T10:44:36.031Z,96254.75
2023-05-15T10:47:08.683Z,96248.88
2023-05-15T10:49:40.377Z,96250.19
2023-05-15T10:52:12.060Z,96253.19
2023-05-15T10:54:43.706Z,96251.09
2023-05-15T10:57:15.710Z,96242.72
2023-05-15T10:59:50.756Z,96241.13
2023-05-15T11:02:29.796Z,96238.31
2023-05-15T11:05:04.067Z,96233.25
2023-05-15T11:07:35.647Z,96232.59
2023-05-15T11:10:28.698Z,96233.59
2023-05-15T11:13:02.728Z,96235.50
2023-05-15T11:15:45.998Z,96235.50
2023-05-15T11:18:18.092Z,96222.50
2023-05-15T11:20:49.699Z,96221.66
2023-05-15T11:23:25.566Z,96224.09
2023-05-15T11:25:57.701Z,96215.59
2023-05-15T11:28:30.801Z,96210.75
2023-05-15T11:31:07.017Z,96205.69
2023-05-15T11:33:40.633Z,96202.63
2023-05-15T11:36:15.890Z,96211.22
2023-05-15T11:38:50.946Z,96200.22
2023-05-15T11:41:24.978Z,96202.84
2023-05-15T11:43:57.205Z,96195.47
2023-05-15T11:46:30.530Z,96215.44
2023-05-15T11:49:02.481Z,96210.25
2023-05-15T11:51:35.470Z,96207.69
2023-05-15T11:54:08.148Z,96204.88
2023-05-15T11:56:47.284Z,96196.75
2023-05-15T12:02:07.013Z,96199.16
2023-05-15T12:04:38.562Z,96199.91
2023-05-15T12:07:12.132Z,96204.59
2023-05-15T12:09:44.144Z,96214.22
2023-05-15T12:12:15.788Z,96214.09
2023-05-15T12:14:47.344Z,96204.03
2023-05-15T12:17:18.917Z,96190.25
2023-05-15T12:19:52.178Z,96192.03
2023-05-15T12:22:23.801Z,96197.69
2023-05-15T12:24:58.979Z,96183.72
2023-05-15T12:27:30.729Z,96176.63
2023-05-15T12:30:06.163Z,96182.22
2023-05-15T12:32:38.927Z,96192.44
2023-05-15T12:35:12.125Z,96195.31
2023-05-15T12:37:43.720Z,96194.06
2023-05-15T12:40:15.512Z,96189.50
2023-05-15T12:42:54.204Z,96186.75
2023-05-15T12:45:33.060Z,96195.94
2023-05-15T12:48:05.865Z,96192.47
2023-05-15T12:50:37.631Z,96195.28
2023-05-15T12:53:21.629Z,96194.94
2023-05-15T12:55:53.202Z,96192.53
2023-05-15T12:58:24.870Z,96187.63
2023-05-15T13:00:57.310Z,96191.44
2023-05-15T13:03:29.658Z,96187.69
2023-05-15T13:06:07.185Z,96183.09
2023-05-15T13:08:42.388Z,96186.53
2023-05-15T13:11:14.679Z,96165.91
2023-05-15T13:13:49.387Z,96174.06
2023-05-15T13:16:26.753Z,96177.53
2023-05-15T13:18:58.943Z,96169.69
2023-05-15T13:21:31.255Z,96174.41
2023-05-15T13:24:02.889Z,96181.47
2023-05-15T13:26:41.612Z,96173.00
2023-05-15T13:29:13.168Z,96176.56
2023-05-15T13:31:44.850Z,96176.47
2023-05-15T13:34:16.416Z,96178.75
2023-05-15T13:36:48.067Z,96178.94
2023-05-15T13:39:19.642Z,96184.63
2023-05-15T13:41:53.287Z,96183.22
2023-05-15T13:44:24.861Z,96180.22
2023-05-15T13:46:56.584Z,96187.50
2023-05-15T13:49:28.379Z,96189.94
2023-05-15T13:52:00.149Z,96199.50
2023-05-15T13:54:32.171Z,96213.94
2023-05-15T13:57:04.101Z,96200.16
2023-05-15T13:59:35.810Z,96206.13
2023-05-15T14:02:07.370Z,96204.72
2023-05-15T14:04:39.000Z,96208.75
2023-05-15T14:07:13.308Z,96217.41
2023-05-15T14:09:44.908Z,96212.28
2023-05-15T14:12:16.513Z,96207.78
2023-05-15T14:14:48.569Z,96209.41
2023-05-15T14:17:22.256Z,96217.50
2023-05-15T14:19:53.989Z,96215.34
2023-05-15T14:22:25.636Z,96212.41
2023-05-15T14:24:57.253Z,96211.19
2023-05-15T14:27:28.956Z,96203.44
2023-05-15T14:30:01.072Z,96208.69
2023-05-15T14:32:32.743Z,96211.03
2023-05-15T14:35:04.963Z,96210.50
2023-05-15T14:37:37.633Z,96203.09
2023-05-15T14:40:10.235Z,96199.53
2023-05-15T14:42:41.788Z,96197.09
2023-05-15T14:45:13.370Z,96190.94
2023-05-15T14:47:45.017Z,96190.25
2023-05-15T14:50:16.641Z,96191.28
2023-05-15T14:52:48.319Z,96185.78
2023-05-15T14:55:23.280Z,96186.97
2023-05-15T14:57:54.861Z,96189.19
2023-05-15T15:00:27.013Z,96183.28
2023-05-15T15:02:59.486Z,96185.50
2023-05-15T15:05:31.445Z,96196.59
2023-05-15T15:08:08.862Z,96185.56
2023-05-15T15:10:41.113Z,96184.41
2023-05-15T15:13:14.014Z,96180.53
2023-05-15T15:15:46.652Z,96180.50
2023-05-15T15:18:18.464Z,96179.19
2023-05-15T15:20:50.103Z,96176.97
2023-05-15T15:23:21.715Z,96179.03
2023-05-15T15:25:53.379Z,96177.63
2023-05-15T15:28:26.287Z,96174.28
2023-05-15T15:30:57.824Z,96176.47
2023-05-15T15:33:29.439Z,96168.59
2023-05-15T15:36:01.091Z,96157.50
2023-05-15T15:38:32.737Z,96168.63
2023-05-15T15:41:05.662Z,96163.06
2023-05-15T15:43:37.237Z,96170.22
2023-05-15T15:46:08.962Z,96165.69
2023-05-15T15:48:40.730Z,96163.00
2023-05-15T15:51:13.920Z,96157.94
2023-05-15T15:53:45.517Z,96152.44
2023-05-15T15:56:20.063Z,96150.53
2023-05-15T15:58:51.802Z,96148.44
2023-05-15T16:01:28.273Z,96156.13
2023-05-15T16:04:00.201Z,96153.31
2023-05-15T16:06:33.713Z,96150.56
2023-05-15T16:09:05.512Z,96156.09
2023-05-15T16:11:37.128Z,96159.16
2023-05-15T16:14:08.856Z,96159.41
2023-05-15T16:16:40.696Z,96153.72
2023-05-15T16:19:13.787Z,96157.28
2023-05-15T16:21:45.490Z,96156.59
2023-05-15T16:24:20.226Z,96148.28
2023-05-15T16:26:55.419Z,96150.22
2023-05-15T16:29:26.986Z,96149.72
2023-05-15T16:31:58.888Z,96152.34
2023-05-15T16:34:30.592Z,96161.81
2023-05-15T16:37:02.219Z,96170.75
2023-05-15T16:39:39.640Z,96165.97
2023-05-15T16:42:14.238Z,96178.56
2023-05-15T16:44:45.806Z,96171.88
2023-05-15T16:47:17.602Z,96177.25
2023-05-15T16:49:50.271Z,96188.66
2023-05-15T16:52:22.334Z,96194.97
2023-05-15T16:54:53.963Z,96189.94
2023-05-15T16:57:26.159Z,96198.63
2023-05-15T16:59:57.771Z,96197.66
2023-05-15T17:02:29.445Z,96198.22
2023-05-15T17:05:03.226Z,96199.22
2023-05-15T17:07:36.466Z,96199.44
2023-05-15T17:10:09.677Z,96191.59
2023-05-15T17:12:41.330Z,96198.41
2023-05-15T17:15:15.905Z,96193.97
2023-05-15T17:17:47.438Z,96190.88
2023-05-15T17:20:19.146Z,96189.13
2023-05-15T17:22:51.238Z,96201.28
2023-05-15T17:25:23.091Z,96199.75
2023-05-15T17:27:55.143Z,96210.41
2023-05-15T17:30:27.020Z,96211.72
2023-05-15T17:33:00.358Z,96217.78
2023-05-15T17:35:33.183Z,96218.19
2023-05-15T17:38:05.096Z,96219.78
2023-05-15T17:40:36.671Z,96214.50
2023-05-15T17:43:10.269Z,96223.41
2023-05-15T17:45:41.974Z,96211.72
2023-05-15T17:48:13.562Z,96209.31
2023-05-15T17:50:45.166Z,96216.28
2023-05-15T17:53:16.928Z,96213.59
2023-05-15T17:55:48.764Z,96223.69
2023-05-15T17:58:21.289Z,96224.78
2023-05-15T18:00:53.044Z,96229.31
2023-05-15T18:03:24.796Z,96226.19
2023-05-15T18:05:59.898Z,96230.50
2023-05-15T18:08:31.548Z,96235.19
2023-05-15T18:11:11.101Z,96238.44
2023-05-15T18:13:49.475Z,96242.13
2023-05-15T18:16:21.336Z,96244.94
2023-05-15T18:18:53.079Z,96251.84
2023-05-15T18:21:25.563Z,96248.38
2023-05-15T18:23:57.205Z,96250.78
2023-05-15T18:26:31.160Z,96259.22
2023-05-15T18:29:03.403Z,96253.41
2023-05-15T18:31:35.949Z,96251.22
2023-05-15T18:34:07.707Z,96246.25
2023-05-15T18:36:39.367Z,96257.38
2023-05-15T18:39:11.123Z,96249.91
2023-05-15T18:41:42.828Z,96257.91
2023-05-15T18:44:14.414Z,96256.59
2023-05-15T18:46:46.430Z,96264.72
2023-05-15T18:49:18.203Z,96261.34
2023-05-15T18:51:49.776Z,96266.69
2023-05-15T18:54:21.467Z,96264.72
2023-05-15T18:56:53.235Z,96268.81
2023-05-15T18:59:24.953Z,96259.00
2023-05-15T19:01:56.718Z,96261.09
2023-05-15T19:04:28.331Z,96266.63
2023-05-15T19:06:59.918Z,96265.97
2023-05-15T19:09:31.718Z,96266.63
2023-05-15T19:12:03.382Z,96273.03
2023-05-15T19:14:35.044Z,96261.53
2023-05-15T19:17:07.459Z,96269.13
2023-05-15T19:19:39.212Z,96269.13
2023-05-15T19:22:10.916Z,96272.69
2023-05-15T19:24:42.707Z,96268.09
2023-05-15T19:27:16.547Z,96274.34
2023-05-15T19:29:48.172Z,96276.38
2023-05-15T19:32:20.151Z,96278.56
2023-05-15T19:34:56.892Z,96288.69
2023-05-15T19:37:29.105Z,96281.88
2023-05-15T19:40:00.755Z,96290.47
2023-05-15T19:42:32.605Z,96289.66
2023-05-15T19:45:04.834Z,96292.34
2023-05-15T19:47:45.351Z,96290.72
2023-05-15T19:50:18.308Z,96295.28
2023-05-15T19:52:49.901Z,96299.34
2023-05-15T19:55:21.611Z,96297.06
2023-05-15T19:57:58.453Z,96295.47
2023-05-15T20:00:30.204Z,96297.06
2023-05-15T20:03:04.988Z,96292.63
2023-05-15T20:05:42.594Z,96289.69
2023-05-15T20:08:15.310Z,96296.09
2023-05-15T20:10:52.269Z,96286.78
2023-05-15T20:13:24.040Z,96292.19
2023-05-15T20:15:58.181Z,96289.56
2023-05-15T20:18:32.181Z,96293.25
2023-05-15T20:21:06.651Z,96287.97
2023-05-15T20:23:38.817Z,96284.47
2023-05-15T20:26:11.737Z,96284.28
2023-05-15T20:28:45.158Z,96283.66
2023-05-15T20:31:19.905Z,96295.53
2023-05-15T20:33:51.549Z,96298.25
2023-05-15T20:36:25.537Z,96299.34
2023-05-15T20:38:57.201Z,96294.56
2023-05-15T20:41:29.361Z,96293.72
2023-05-15T20:44:01.359Z,96292.97
2023-05-15T20:46:33.272Z,96292.19
2023-05-15T20:49:05.057Z,96283.50
2023-05-15T20:51:36.667Z,96276.91
2023-05-15T20:54:08.274Z,96293.25
2023-05-15T20:56:43.102Z,96293.19
2023-05-15T20:59:14.804Z,96287.53
2023-05-15T21:01:49.225Z,96294.34
2023-05-15T21:04:20.837Z,96293.69
2023-05-15T21:06:52.579Z,96287.63
2023-05-15T21:09:27.258Z,96294.34
2023-05-15T21:11:59.844Z,96286.44
2023-05-15T21:14:31.519Z,96285.50
2023-05-15T21:17:03.135Z,96284.06
2023-05-15T21:19:34.772Z,96280.34
2023-05-15T21:22:06.941Z,96282.66
2023-05-15T21:24:38.657Z,96282.78
2023-05-15T21:27:10.709Z,96287.97
2023-05-15T21:29:42.410Z,96281.69
2023-05-15T21:32:16.392Z,96283.66
2023-05-15T21:34:48.024Z,96278.88
2023-05-15T21:37:19.694Z,96279.53
2023-05-15T21:39:51.273Z,96271.03
2023-05-15T21:42:22.836Z,96278.22
2023-05-15T21:44:57.924Z,96279.28
2023-05-15T21:47:29.458Z,96275.94
2023-05-15T21:50:01.302Z,96272.00
2023-05-15T21:52:32.967Z,96272.13
2023-05-15T21:55:05.128Z,96271.63
2023-05-15T21:57:36.699Z,96275.19
2023-05-15T22:00:09.231Z,96264.63
2023-05-15T22:02:40.924Z,96272.63
2023-05-15T22:05:12.938Z,96269.97
2023-05-15T22:07:44.635Z,96273.03
2023-05-15T22:10:16.684Z,96273.34
2023-05-15T22:12:48.352Z,96271.22
2023-05-15T22:15:20.075Z,96273.38
2023-05-15T22:17:51.794Z,96268.19
2023-05-15T22:20:23.686Z,96264.72
2023-05-15T22:22:55.633Z,96270.34
2023-05-15T22:25:27.278Z,96265.59
2023-05-15T22:27:58.903Z,96272.31
2023-05-15T22:30:30.714Z,96274.47
2023-05-15T22:33:02.442Z,96282.38
2023-05-15T22:35:34.203Z,96281.53
2023-05-15T22:38:07.305Z,96278.72
2023-05-15T22:40:38.944Z,96276.09
2023-05-15T22:43:10.636Z,96284.75
2023-05-15T22:45:42.272Z,96278.00
2023-05-15T22:48:15.431Z,96279.13
2023-05-15T22:50:47.621Z,96286.50
2023-05-15T22:53:21.515Z,96283.91
2023-05-15T22:55:53.101Z,96280.44
2023-05-15T22:58:24.786Z,96276.84
2023-05-15T23:00:56.575Z,96276.75
2023-05-15T23:03:31.509Z,96278.91
2023-05-15T23:06:03.217Z,96284.53
2023-05-15T23:08:34.768Z,96279.66
2023-05-15T23:11:06.360Z,96274.47
2023-05-15T23:13:37.936Z,96276.75
2023-05-15T23:16:12.487Z,96275.53
2023-05-15T23:18:44.295Z,96277.81
2023-05-15T23:21:15.928Z,96278.56
2023-05-15T23:23:48.330Z,96283.75
2023-05-15T23:26:20.088Z,96277.81
2023-05-15T23:28:51.869Z,96272.66
2023-05-15T23:31:23.594Z,96283.47
2023-05-15T23:33:55.323Z,96272.66
2023-05-15T23:36:27.103Z,96277.00
2023-05-15T23:38:58.919Z,96277.44
2023-05-15T23:41:30.681Z,96279.72
2023-05-15T23:44:05.068Z,96276.34
2023-05-15T23:46:38.353Z,96292.59
2023-05-15T23:49:10.053Z,96281.03
2023-05-15T23:51:41.698Z,96273.88
2023-05-15T23:54:13.234Z,96271.22
2023-05-15T23:56:45.377Z,96266.34
2023-05-15T23:59:16.955Z,96272.34
